Red Fish, Louisiana
Current Conditions -  °F | °C
As of 12:15 AM on Wednesday 28 Jan 2015 (Local Time) from KHZR Reporting Station
Clear Clear  
Wind Chill: 46°   Ceiling: Unl
Heat Index: 46°   Visibility: 10mi
Dew Point: 40°   Wind: 0mph
Humidity: 80%   Direction: NA
Pressure: 30.18"   Gusts: NA
Location:  30.9317°N, 91.8606°W
Report Text: KHZR 280615Z AUTO 00000KT 10SM CLR 08/04 A3018 RMK AO2 T00750043
Loading
Personal Weather Stations






























Interactive Weather Map New forecast layout! Learn more

10-Day Weather Forecast

Advertisements
Track Severe Weather on mobile